Aguascalientes, Mexico

5:59 AM CDT on August 30, 2016 (GMT -0500)
Jesus Teran International | | Change Station

Elev 6109 ft 21.70 °N, 102.32 °W | Updated 19 minutes ago

Mostly Cloudy
Mostly Cloudy
57 °F
Feels Like 57 °F
N
0
Wind Variable Wind from North

Today
High -- | Low -- °F
--% Chance of Precip.
Yesterday
High -- | Low -- °F
Precip. -- in
Pressure 30.23 in
Visibility 8.0 miles
Clouds Mostly Cloudy 8000 ft
Mostly Cloudy 18000 ft
Dew Point 54 °F
Humidity 88%
Rainfall 0.00 in
Snow Depth Not available.
7:32 AM 8:06 PM
Waning Crescent, 4% visible
METAR MMAS 301040Z 00000KT 8SM BKN080 BKN180 14/12 A3023 RMK 8/038
Pressure 30.23 in
Visibility 8.0 miles
Clouds Mostly Cloudy 8000 ft
Mostly Cloudy 18000 ft
Dew Point 54 °F
Humidity 88%
Rainfall 0.00 in
Snow Depth Not available.
7:32 AM 8:06 PM
Waning Crescent, 4% visible
METAR MMAS 301040Z 00000KT 8SM BKN080 BKN180 14/12 A3023 RMK 8/038

10-Day Weather Forecast

No radar image for this location.
×

Almanac

Astronomy

Aug. 30, 2016 Rise Set
Actual Time
Civil Twilight
Nautical Twilight
Astronomical Twilight
Moon
Length of Visible Light
Length of Day
Tomorrow will be .
, % of the Moon is Illuminated

Today's Extremes

Country Highs Country Lows

Community

WunderPhotos

Upload Photos

1,935,809 photos uploaded!

WunderBlog® & News

Nearby

Air Quality

  Air Quality AQ Index Pollutant
Not available.

Snow Depth

Station Depth Elevation

Earthquake Activity

City Distance Mag. Time & Date
Minimum magnitude displayed is 2.5.

Coastal Water Temperatures

Place Temperature

Stations

Nearby Weather Stations

Station Location Temp. Windchill Dew Point Humidity Wind Precip. Elev Updated Type